sensor_id;sensor_type;location;lat;lon;timestamp;P1;durP1;ratioP1;P2;durP2;ratioP2
7158;SDS011;63175;52.374;13.132;2023-10-09T00:01:02;2.27;;;1.20;;
7158;SDS011;63175;52.374;13.132;2023-10-09T00:03:38;3.17;;;1.17;;
7158;SDS011;63175;52.374;13.132;2023-10-09T00:06:07;1.17;;;1.07;;
7158;SDS011;63175;52.374;13.132;2023-10-09T00:08:35;1.70;;;1.47;;
7158;SDS011;63175;52.374;13.132;2023-10-09T00:11:04;2.60;;;0.97;;
7158;SDS011;63175;52.374;13.132;2023-10-09T00:13:41;1.37;;;1.27;;
7158;SDS011;63175;52.374;13.132;2023-10-09T00:16:18;1.13;;;1.03;;
7158;SDS011;63175;52.374;13.132;2023-10-09T00:18:57;2.57;;;1.37;;
7158;SDS011;63175;52.374;13.132;2023-10-09T00:21:38;2.40;;;1.57;;
7158;SDS011;63175;52.374;13.132;2023-10-09T00:24:06;4.33;;;1.40;;
7158;SDS011;63175;52.374;13.132;2023-10-09T00:26:38;1.20;;;1.10;;
7158;SDS011;63175;52.374;13.132;2023-10-09T00:29:10;1.40;;;1.30;;
7158;SDS011;63175;52.374;13.132;2023-10-09T00:31:48;1.23;;;1.13;;
7158;SDS011;63175;52.374;13.132;2023-10-09T00:34:31;1.03;;;1.00;;
7158;SDS011;63175;52.374;13.132;2023-10-09T00:37:04;1.50;;;1.20;;
7158;SDS011;63175;52.374;13.132;2023-10-09T00:39:35;2.10;;;1.07;;
7158;SDS011;63175;52.374;13.132;2023-10-09T00:42:08;2.70;;;1.53;;
7158;SDS011;63175;52.374;13.132;2023-10-09T00:44:39;2.03;;;1.50;;
7158;SDS011;63175;52.374;13.132;2023-10-09T00:47:08;2.17;;;1.93;;
7158;SDS011;63175;52.374;13.132;2023-10-09T00:49:51;2.37;;;1.90;;
7158;SDS011;63175;52.374;13.132;2023-10-09T00:52:24;1.70;;;1.60;;
7158;SDS011;63175;52.374;13.132;2023-10-09T00:55:02;1.77;;;1.50;;
7158;SDS011;63175;52.374;13.132;2023-10-09T00:57:38;1.53;;;1.37;;
7158;SDS011;63175;52.374;13.132;2023-10-09T01:00:07;3.10;;;1.40;;
7158;SDS011;63175;52.374;13.132;2023-10-09T01:02:50;1.70;;;1.60;;
7158;SDS011;63175;52.374;13.132;2023-10-09T01:05:35;1.27;;;1.17;;
7158;SDS011;63175;52.374;13.132;2023-10-09T01:08:03;4.30;;;1.50;;
7158;SDS011;63175;52.374;13.132;2023-10-09T01:10:44;3.17;;;1.10;;
7158;SDS011;63175;52.374;13.132;2023-10-09T01:13:16;2.73;;;1.33;;
7158;SDS011;63175;52.374;13.132;2023-10-09T01:15:44;1.80;;;1.60;;
7158;SDS011;63175;52.374;13.132;2023-10-09T01:18:14;1.57;;;1.30;;
7158;SDS011;63175;52.374;13.132;2023-10-09T01:20:44;1.43;;;1.23;;
7158;SDS011;63175;52.374;13.132;2023-10-09T01:23:12;1.17;;;1.07;;
7158;SDS011;63175;52.374;13.132;2023-10-09T01:25:40;4.47;;;1.87;;
7158;SDS011;63175;52.374;13.132;2023-10-09T01:28:14;2.03;;;1.83;;
7158;SDS011;63175;52.374;13.132;2023-10-09T01:30:42;2.70;;;1.87;;
7158;SDS011;63175;52.374;13.132;2023-10-09T01:33:09;2.13;;;1.60;;
7158;SDS011;63175;52.374;13.132;2023-10-09T01:35:47;2.20;;;1.80;;
7158;SDS011;63175;52.374;13.132;2023-10-09T01:38:17;2.07;;;1.73;;
7158;SDS011;63175;52.374;13.132;2023-10-09T01:40:55;3.27;;;2.17;;
7158;SDS011;63175;52.374;13.132;2023-10-09T01:43:28;5.03;;;2.00;;
7158;SDS011;63175;52.374;13.132;2023-10-09T01:45:59;1.47;;;1.37;;
7158;SDS011;63175;52.374;13.132;2023-10-09T01:48:26;2.17;;;1.37;;
7158;SDS011;63175;52.374;13.132;2023-10-09T01:50:54;1.73;;;1.30;;
7158;SDS011;63175;52.374;13.132;2023-10-09T01:53:22;2.10;;;1.60;;
7158;SDS011;63175;52.374;13.132;2023-10-09T01:55:54;1.80;;;1.70;;
7158;SDS011;63175;52.374;13.132;2023-10-09T01:58:21;1.47;;;1.33;;
7158;SDS011;63175;52.374;13.132;2023-10-09T02:00:57;6.20;;;1.63;;
7158;SDS011;63175;52.374;13.132;2023-10-09T02:03:27;1.70;;;1.57;;
7158;SDS011;63175;52.374;13.132;2023-10-09T02:05:54;1.57;;;1.47;;
7158;SDS011;63175;52.374;13.132;2023-10-09T02:08:44;2.07;;;1.87;;
7158;SDS011;63175;52.374;13.132;2023-10-09T02:11:14;1.73;;;1.20;;
7158;SDS011;63175;52.374;13.132;2023-10-09T02:13:49;4.40;;;2.03;;
7158;SDS011;63175;52.374;13.132;2023-10-09T02:16:19;2.43;;;1.73;;
7158;SDS011;63175;52.374;13.132;2023-10-09T02:18:53;1.57;;;1.47;;
7158;SDS011;63175;52.374;13.132;2023-10-09T02:21:21;1.47;;;1.37;;
7158;SDS011;63175;52.374;13.132;2023-10-09T02:23:59;2.10;;;1.90;;
7158;SDS011;63175;52.374;13.132;2023-10-09T02:26:32;1.80;;;1.70;;
7158;SDS011;63175;52.374;13.132;2023-10-09T02:29:26;2.63;;;1.60;;
7158;SDS011;63175;52.374;13.132;2023-10-09T02:31:52;2.00;;;1.90;;
7158;SDS011;63175;52.374;13.132;2023-10-09T02:34:26;1.90;;;1.70;;
7158;SDS011;63175;52.374;13.132;2023-10-09T02:36:53;1.47;;;1.37;;
7158;SDS011;63175;52.374;13.132;2023-10-09T02:39:30;2.00;;;1.77;;
7158;SDS011;63175;52.374;13.132;2023-10-09T02:42:02;1.63;;;1.53;;
7158;SDS011;63175;52.374;13.132;2023-10-09T02:44:44;1.43;;;1.30;;
7158;SDS011;63175;52.374;13.132;2023-10-09T02:47:14;2.10;;;1.90;;
7158;SDS011;63175;52.374;13.132;2023-10-09T02:49:45;2.20;;;1.53;;
7158;SDS011;63175;52.374;13.132;2023-10-09T02:52:14;1.60;;;1.50;;
7158;SDS011;63175;52.374;13.132;2023-10-09T02:54:45;2.23;;;2.03;;
7158;SDS011;63175;52.374;13.132;2023-10-09T02:57:13;1.67;;;1.57;;
7158;SDS011;63175;52.374;13.132;2023-10-09T02:59:47;2.90;;;1.77;;
7158;SDS011;63175;52.374;13.132;2023-10-09T03:02:16;2.00;;;1.80;;
7158;SDS011;63175;52.374;13.132;2023-10-09T03:04:44;1.97;;;1.87;;
7158;SDS011;63175;52.374;13.132;2023-10-09T03:07:10;6.50;;;2.90;;
7158;SDS011;63175;52.374;13.132;2023-10-09T03:09:39;3.30;;;2.10;;
7158;SDS011;63175;52.374;13.132;2023-10-09T03:12:07;2.20;;;2.00;;
7158;SDS011;63175;52.374;13.132;2023-10-09T03:14:38;1.93;;;1.73;;
7158;SDS011;63175;52.374;13.132;2023-10-09T03:17:06;2.67;;;1.77;;
7158;SDS011;63175;52.374;13.132;2023-10-09T03:19:36;2.63;;;2.17;;
7158;SDS011;63175;52.374;13.132;2023-10-09T03:22:04;1.97;;;1.67;;
7158;SDS011;63175;52.374;13.132;2023-10-09T03:24:34;2.30;;;2.10;;
7158;SDS011;63175;52.374;13.132;2023-10-09T03:27:01;4.90;;;1.80;;
7158;SDS011;63175;52.374;13.132;2023-10-09T03:29:29;1.60;;;1.50;;
7158;SDS011;63175;52.374;13.132;2023-10-09T03:31:58;2.53;;;2.23;;
7158;SDS011;63175;52.374;13.132;2023-10-09T03:34:25;1.90;;;1.80;;
7158;SDS011;63175;52.374;13.132;2023-10-09T03:36:53;2.23;;;1.90;;
7158;SDS011;63175;52.374;13.132;2023-10-09T03:39:29;2.80;;;2.00;;
7158;SDS011;63175;52.374;13.132;2023-10-09T03:42:06;2.10;;;1.87;;
7158;SDS011;63175;52.374;13.132;2023-10-09T03:44:38;2.13;;;1.87;;
7158;SDS011;63175;52.374;13.132;2023-10-09T03:47:08;3.77;;;2.00;;
7158;SDS011;63175;52.374;13.132;2023-10-09T03:49:36;2.43;;;2.23;;
7158;SDS011;63175;52.374;13.132;2023-10-09T03:52:04;2.40;;;1.97;;
7158;SDS011;63175;52.374;13.132;2023-10-09T03:54:31;1.90;;;1.80;;
7158;SDS011;63175;52.374;13.132;2023-10-09T03:57:00;5.37;;;2.60;;
7158;SDS011;63175;52.374;13.132;2023-10-09T03:59:27;3.60;;;1.97;;
7158;SDS011;63175;52.374;13.132;2023-10-09T04:01:58;2.07;;;1.87;;
7158;SDS011;63175;52.374;13.132;2023-10-09T04:04:25;3.37;;;2.97;;
7158;SDS011;63175;52.374;13.132;2023-10-09T04:06:53;4.20;;;2.50;;
7158;SDS011;63175;52.374;13.132;2023-10-09T04:09:20;3.10;;;2.53;;
7158;SDS011;63175;52.374;13.132;2023-10-09T04:12:00;2.90;;;2.53;;
7158;SDS011;63175;52.374;13.132;2023-10-09T04:14:47;2.60;;;2.40;;
7158;SDS011;63175;52.374;13.132;2023-10-09T04:17:16;1.83;;;1.73;;
7158;SDS011;63175;52.374;13.132;2023-10-09T04:19:58;2.07;;;1.97;;
7158;SDS011;63175;52.374;13.132;2023-10-09T04:22:43;2.30;;;2.10;;
7158;SDS011;63175;52.374;13.132;2023-10-09T04:25:16;2.53;;;2.10;;
7158;SDS011;63175;52.374;13.132;2023-10-09T04:27:50;2.73;;;1.50;;
7158;SDS011;63175;52.374;13.132;2023-10-09T04:30:25;2.03;;;1.77;;
7158;SDS011;63175;52.374;13.132;2023-10-09T04:32:54;2.40;;;1.90;;
7158;SDS011;63175;52.374;13.132;2023-10-09T04:35:25;4.37;;;2.43;;
7158;SDS011;63175;52.374;13.132;2023-10-09T04:37:56;1.83;;;1.67;;
7158;SDS011;63175;52.374;13.132;2023-10-09T04:40:29;2.40;;;2.20;;
7158;SDS011;63175;52.374;13.132;2023-10-09T04:43:17;2.23;;;2.03;;
7158;SDS011;63175;52.374;13.132;2023-10-09T04:45:46;2.80;;;2.30;;
7158;SDS011;63175;52.374;13.132;2023-10-09T04:48:32;2.17;;;2.00;;
7158;SDS011;63175;52.374;13.132;2023-10-09T04:51:03;2.87;;;2.57;;
7158;SDS011;63175;52.374;13.132;2023-10-09T04:53:47;3.23;;;2.10;;
7158;SDS011;63175;52.374;13.132;2023-10-09T04:56:25;2.43;;;2.23;;
7158;SDS011;63175;52.374;13.132;2023-10-09T04:58:56;4.03;;;2.40;;
7158;SDS011;63175;52.374;13.132;2023-10-09T05:01:29;5.13;;;2.30;;
7158;SDS011;63175;52.374;13.132;2023-10-09T05:04:04;2.93;;;2.67;;
7158;SDS011;63175;52.374;13.132;2023-10-09T05:06:52;3.90;;;2.50;;
7158;SDS011;63175;52.374;13.132;2023-10-09T05:09:21;2.30;;;2.13;;
7158;SDS011;63175;52.374;13.132;2023-10-09T05:11:47;2.63;;;2.40;;
7158;SDS011;63175;52.374;13.132;2023-10-09T05:14:34;3.37;;;2.33;;
7158;SDS011;63175;52.374;13.132;2023-10-09T05:17:04;2.33;;;2.10;;
7158;SDS011;63175;52.374;13.132;2023-10-09T05:19:35;3.37;;;2.50;;
7158;SDS011;63175;52.374;13.132;2023-10-09T05:22:19;2.33;;;1.87;;
7158;SDS011;63175;52.374;13.132;2023-10-09T05:25:04;2.17;;;2.07;;
7158;SDS011;63175;52.374;13.132;2023-10-09T05:27:41;2.60;;;2.40;;
7158;SDS011;63175;52.374;13.132;2023-10-09T05:30:11;2.23;;;1.93;;
7158;SDS011;63175;52.374;13.132;2023-10-09T05:32:58;4.57;;;2.80;;
7158;SDS011;63175;52.374;13.132;2023-10-09T05:35:47;2.60;;;2.07;;
7158;SDS011;63175;52.374;13.132;2023-10-09T05:38:30;2.50;;;1.83;;
7158;SDS011;63175;52.374;13.132;2023-10-09T05:41:00;6.67;;;2.20;;
7158;SDS011;63175;52.374;13.132;2023-10-09T05:43:49;2.40;;;2.20;;
7158;SDS011;63175;52.374;13.132;2023-10-09T05:46:34;2.50;;;2.30;;
7158;SDS011;63175;52.374;13.132;2023-10-09T05:49:02;2.80;;;2.30;;
7158;SDS011;63175;52.374;13.132;2023-10-09T05:51:36;3.13;;;2.00;;
7158;SDS011;63175;52.374;13.132;2023-10-09T05:54:08;1.87;;;1.70;;
7158;SDS011;63175;52.374;13.132;2023-10-09T05:56:48;1.90;;;1.70;;
7158;SDS011;63175;52.374;13.132;2023-10-09T05:59:33;1.80;;;1.70;;
7158;SDS011;63175;52.374;13.132;2023-10-09T06:02:17;1.70;;;1.60;;
7158;SDS011;63175;52.374;13.132;2023-10-09T06:04:58;2.10;;;2.00;;
7158;SDS011;63175;52.374;13.132;2023-10-09T06:07:31;1.80;;;1.70;;
7158;SDS011;63175;52.374;13.132;2023-10-09T06:10:26;1.73;;;1.63;;
7158;SDS011;63175;52.374;13.132;2023-10-09T06:13:04;3.00;;;2.10;;
7158;SDS011;63175;52.374;13.132;2023-10-09T06:15:35;1.53;;;1.43;;
7158;SDS011;63175;52.374;13.132;2023-10-09T06:18:34;2.43;;;2.23;;
7158;SDS011;63175;52.374;13.132;2023-10-09T06:21:06;2.43;;;2.23;;
7158;SDS011;63175;52.374;13.132;2023-10-09T06:23:45;2.50;;;2.30;;
7158;SDS011;63175;52.374;13.132;2023-10-09T06:26:30;2.10;;;2.00;;
7158;SDS011;63175;52.374;13.132;2023-10-09T06:28:58;2.90;;;2.70;;
7158;SDS011;63175;52.374;13.132;2023-10-09T06:31:38;2.90;;;2.63;;
7158;SDS011;63175;52.374;13.132;2023-10-09T06:34:26;2.30;;;2.10;;
7158;SDS011;63175;52.374;13.132;2023-10-09T06:36:58;3.13;;;2.70;;
7158;SDS011;63175;52.374;13.132;2023-10-09T06:39:33;4.93;;;3.20;;
7158;SDS011;63175;52.374;13.132;2023-10-09T06:42:18;3.60;;;2.60;;
7158;SDS011;63175;52.374;13.132;2023-10-09T06:45:00;3.97;;;3.57;;
7158;SDS011;63175;52.374;13.132;2023-10-09T06:47:29;3.10;;;2.80;;
7158;SDS011;63175;52.374;13.132;2023-10-09T06:50:01;3.47;;;2.90;;
7158;SDS011;63175;52.374;13.132;2023-10-09T06:52:46;3.60;;;2.67;;
7158;SDS011;63175;52.374;13.132;2023-10-09T06:55:40;3.10;;;2.67;;
7158;SDS011;63175;52.374;13.132;2023-10-09T06:58:15;3.60;;;2.70;;
7158;SDS011;63175;52.374;13.132;2023-10-09T07:00:48;3.30;;;3.00;;
7158;SDS011;63175;52.374;13.132;2023-10-09T07:03:38;3.40;;;2.40;;
7158;SDS011;63175;52.374;13.132;2023-10-09T07:06:17;3.30;;;3.10;;
7158;SDS011;63175;52.374;13.132;2023-10-09T07:08:50;3.33;;;3.03;;
7158;SDS011;63175;52.374;13.132;2023-10-09T07:11:43;3.73;;;3.10;;
7158;SDS011;63175;52.374;13.132;2023-10-09T07:14:24;3.40;;;2.93;;
7158;SDS011;63175;52.374;13.132;2023-10-09T07:17:08;2.87;;;2.67;;
7158;SDS011;63175;52.374;13.132;2023-10-09T07:19:47;6.10;;;3.80;;
7158;SDS011;63175;52.374;13.132;2023-10-09T07:22:38;2.77;;;2.57;;
7158;SDS011;63175;52.374;13.132;2023-10-09T07:25:17;3.30;;;2.93;;
7158;SDS011;63175;52.374;13.132;2023-10-09T07:28:07;2.97;;;2.70;;
7158;SDS011;63175;52.374;13.132;2023-10-09T07:30:54;6.87;;;2.83;;
7158;SDS011;63175;52.374;13.132;2023-10-09T07:33:23;4.73;;;2.50;;
7158;SDS011;63175;52.374;13.132;2023-10-09T07:36:16;3.00;;;2.80;;
7158;SDS011;63175;52.374;13.132;2023-10-09T07:38:54;4.20;;;3.07;;
7158;SDS011;63175;52.374;13.132;2023-10-09T07:41:24;4.30;;;3.30;;
7158;SDS011;63175;52.374;13.132;2023-10-09T07:44:05;3.63;;;2.77;;
7158;SDS011;63175;52.374;13.132;2023-10-09T07:46:59;3.57;;;3.10;;
7158;SDS011;63175;52.374;13.132;2023-10-09T07:49:42;3.53;;;3.10;;
7158;SDS011;63175;52.374;13.132;2023-10-09T07:52:14;3.13;;;2.93;;
7158;SDS011;63175;52.374;13.132;2023-10-09T07:54:42;3.13;;;2.83;;
7158;SDS011;63175;52.374;13.132;2023-10-09T07:57:15;3.90;;;3.13;;
7158;SDS011;63175;52.374;13.132;2023-10-09T07:59:44;3.77;;;2.57;;
7158;SDS011;63175;52.374;13.132;2023-10-09T08:02:26;2.10;;;2.00;;
7158;SDS011;63175;52.374;13.132;2023-10-09T08:04:58;4.50;;;3.23;;
7158;SDS011;63175;52.374;13.132;2023-10-09T08:07:29;2.80;;;2.60;;
7158;SDS011;63175;52.374;13.132;2023-10-09T08:10:00;2.40;;;2.30;;
7158;SDS011;63175;52.374;13.132;2023-10-09T08:12:48;5.33;;;3.17;;
7158;SDS011;63175;52.374;13.132;2023-10-09T08:15:25;4.20;;;3.40;;
7158;SDS011;63175;52.374;13.132;2023-10-09T08:17:59;2.80;;;2.60;;
7158;SDS011;63175;52.374;13.132;2023-10-09T08:20:29;6.23;;;2.40;;
7158;SDS011;63175;52.374;13.132;2023-10-09T08:23:16;4.93;;;3.70;;
7158;SDS011;63175;52.374;13.132;2023-10-09T08:25:58;3.47;;;2.70;;
7158;SDS011;63175;52.374;13.132;2023-10-09T08:28:37;3.23;;;2.93;;
7158;SDS011;63175;52.374;13.132;2023-10-09T10:00:38;4.03;;;3.63;;
7158;SDS011;63175;52.374;13.132;2023-10-09T10:03:09;3.47;;;3.17;;
7158;SDS011;63175;52.374;13.132;2023-10-09T10:05:38;3.40;;;3.20;;
7158;SDS011;63175;52.374;13.132;2023-10-09T10:08:11;3.90;;;3.57;;
7158;SDS011;63175;52.374;13.132;2023-10-09T10:10:45;3.20;;;3.00;;
7158;SDS011;63175;52.374;13.132;2023-10-09T10:13:17;2.80;;;2.60;;
7158;SDS011;63175;52.374;13.132;2023-10-09T10:16:08;3.60;;;3.20;;
7158;SDS011;63175;52.374;13.132;2023-10-09T10:18:54;3.90;;;3.60;;
7158;SDS011;63175;52.374;13.132;2023-10-09T10:21:25;3.70;;;3.40;;
7158;SDS011;63175;52.374;13.132;2023-10-09T10:27:17;3.70;;;3.40;;
7158;SDS011;63175;52.374;13.132;2023-10-09T10:29:53;3.60;;;3.30;;
7158;SDS011;63175;52.374;13.132;2023-10-09T10:32:57;4.43;;;3.53;;
7158;SDS011;63175;52.374;13.132;2023-10-09T10:35:34;3.50;;;3.20;;
7158;SDS011;63175;52.374;13.132;2023-10-09T10:41:13;3.50;;;3.30;;
7158;SDS011;63175;52.374;13.132;2023-10-09T10:43:44;5.83;;;3.37;;
7158;SDS011;63175;52.374;13.132;2023-10-09T10:46:24;4.30;;;3.27;;
7158;SDS011;63175;52.374;13.132;2023-10-09T10:48:57;3.63;;;3.43;;
7158;SDS011;63175;52.374;13.132;2023-10-09T10:51:35;4.47;;;4.10;;
7158;SDS011;63175;52.374;13.132;2023-10-09T10:54:04;4.53;;;3.40;;
7158;SDS011;63175;52.374;13.132;2023-10-09T10:56:57;4.43;;;4.03;;
7158;SDS011;63175;52.374;13.132;2023-10-09T10:59:25;2.90;;;2.70;;
7158;SDS011;63175;52.374;13.132;2023-10-09T11:02:01;6.00;;;3.70;;
7158;SDS011;63175;52.374;13.132;2023-10-09T11:04:49;3.63;;;3.33;;
7158;SDS011;63175;52.374;13.132;2023-10-09T11:07:21;4.13;;;3.40;;
7158;SDS011;63175;52.374;13.132;2023-10-09T11:09:52;4.47;;;4.00;;
7158;SDS011;63175;52.374;13.132;2023-10-09T11:12:42;3.47;;;3.23;;
7158;SDS011;63175;52.374;13.132;2023-10-09T11:15:31;4.07;;;3.67;;
7158;SDS011;63175;52.374;13.132;2023-10-09T11:18:03;4.70;;;4.30;;
7158;SDS011;63175;52.374;13.132;2023-10-09T11:20:34;4.20;;;3.87;;
7158;SDS011;63175;52.374;13.132;2023-10-09T11:23:03;4.53;;;3.90;;
7158;SDS011;63175;52.374;13.132;2023-10-09T11:25:41;5.73;;;5.13;;
7158;SDS011;63175;52.374;13.132;2023-10-09T11:28:16;7.77;;;5.07;;
7158;SDS011;63175;52.374;13.132;2023-10-09T11:30:54;4.50;;;4.10;;
7158;SDS011;63175;52.374;13.132;2023-10-09T11:33:22;4.60;;;4.20;;
7158;SDS011;63175;52.374;13.132;2023-10-09T11:35:56;5.13;;;4.73;;
7158;SDS011;63175;52.374;13.132;2023-10-09T11:38:23;4.63;;;4.20;;
7158;SDS011;63175;52.374;13.132;2023-10-09T11:40:50;4.43;;;4.13;;
7158;SDS011;63175;52.374;13.132;2023-10-09T11:43:50;5.30;;;4.90;;
7158;SDS011;63175;52.374;13.132;2023-10-09T11:46:18;5.30;;;4.27;;
7158;SDS011;63175;52.374;13.132;2023-10-09T11:49:13;4.53;;;4.17;;
7158;SDS011;63175;52.374;13.132;2023-10-09T11:51:51;5.53;;;5.00;;
7158;SDS011;63175;52.374;13.132;2023-10-09T11:54:35;4.17;;;3.93;;
7158;SDS011;63175;52.374;13.132;2023-10-09T11:57:02;6.13;;;4.83;;
7158;SDS011;63175;52.374;13.132;2023-10-09T11:59:31;3.93;;;3.63;;
7158;SDS011;63175;52.374;13.132;2023-10-09T12:02:02;4.20;;;3.80;;
7158;SDS011;63175;52.374;13.132;2023-10-09T12:04:31;6.10;;;4.97;;
7158;SDS011;63175;52.374;13.132;2023-10-09T12:06:57;4.57;;;4.20;;
7158;SDS011;63175;52.374;13.132;2023-10-09T12:09:31;4.93;;;4.43;;
7158;SDS011;63175;52.374;13.132;2023-10-09T12:11:59;4.27;;;3.97;;
7158;SDS011;63175;52.374;13.132;2023-10-09T12:14:26;5.57;;;4.37;;
7158;SDS011;63175;52.374;13.132;2023-10-09T12:16:59;5.10;;;4.70;;
7158;SDS011;63175;52.374;13.132;2023-10-09T12:19:31;4.77;;;4.37;;
7158;SDS011;63175;52.374;13.132;2023-10-09T12:21:59;5.10;;;4.10;;
7158;SDS011;63175;52.374;13.132;2023-10-09T12:24:26;4.10;;;3.70;;
7158;SDS011;63175;52.374;13.132;2023-10-09T12:26:54;5.57;;;4.17;;
7158;SDS011;63175;52.374;13.132;2023-10-09T12:29:22;4.47;;;4.07;;
7158;SDS011;63175;52.374;13.132;2023-10-09T12:31:49;3.90;;;3.60;;
7158;SDS011;63175;52.374;13.132;2023-10-09T12:34:24;3.50;;;3.23;;
7158;SDS011;63175;52.374;13.132;2023-10-09T12:36:53;4.07;;;3.77;;
7158;SDS011;63175;52.374;13.132;2023-10-09T12:39:20;3.67;;;3.37;;
7158;SDS011;63175;52.374;13.132;2023-10-09T12:41:47;3.70;;;3.40;;
7158;SDS011;63175;52.374;13.132;2023-10-09T12:44:18;3.30;;;3.10;;
7158;SDS011;63175;52.374;13.132;2023-10-09T12:46:45;3.33;;;3.13;;
7158;SDS011;63175;52.374;13.132;2023-10-09T12:49:18;3.60;;;3.40;;
7158;SDS011;63175;52.374;13.132;2023-10-09T12:51:46;3.80;;;3.50;;
7158;SDS011;63175;52.374;13.132;2023-10-09T12:54:13;3.43;;;3.20;;
7158;SDS011;63175;52.374;13.132;2023-10-09T12:56:40;2.90;;;2.70;;
7158;SDS011;63175;52.374;13.132;2023-10-09T12:59:07;3.37;;;3.17;;
7158;SDS011;63175;52.374;13.132;2023-10-09T13:01:39;3.57;;;3.30;;
7158;SDS011;63175;52.374;13.132;2023-10-09T13:04:08;2.83;;;2.63;;
7158;SDS011;63175;52.374;13.132;2023-10-09T13:06:37;3.17;;;2.97;;
7158;SDS011;63175;52.374;13.132;2023-10-09T13:09:10;3.37;;;3.13;;
7158;SDS011;63175;52.374;13.132;2023-10-09T13:11:38;3.40;;;3.20;;
7158;SDS011;63175;52.374;13.132;2023-10-09T13:17:28;4.33;;;3.50;;
7158;SDS011;63175;52.374;13.132;2023-10-09T13:19:55;4.03;;;3.63;;
7158;SDS011;63175;52.374;13.132;2023-10-09T13:22:22;4.67;;;4.17;;
7158;SDS011;63175;52.374;13.132;2023-10-09T13:24:51;4.90;;;4.50;;
7158;SDS011;63175;52.374;13.132;2023-10-09T13:27:28;4.40;;;4.10;;
7158;SDS011;63175;52.374;13.132;2023-10-09T13:29:59;4.63;;;4.23;;
7158;SDS011;63175;52.374;13.132;2023-10-09T13:32:30;4.30;;;3.97;;
7158;SDS011;63175;52.374;13.132;2023-10-09T13:35:00;5.40;;;4.80;;
7158;SDS011;63175;52.374;13.132;2023-10-09T13:37:28;5.00;;;4.13;;
7158;SDS011;63175;52.374;13.132;2023-10-09T13:39:58;4.60;;;4.23;;
7158;SDS011;63175;52.374;13.132;2023-10-09T13:42:33;4.70;;;4.40;;
7158;SDS011;63175;52.374;13.132;2023-10-09T13:45:01;4.93;;;4.53;;
7158;SDS011;63175;52.374;13.132;2023-10-09T13:47:32;3.93;;;3.67;;
7158;SDS011;63175;52.374;13.132;2023-10-09T13:50:01;4.47;;;4.17;;
7158;SDS011;63175;52.374;13.132;2023-10-09T13:52:28;3.70;;;3.50;;
7158;SDS011;63175;52.374;13.132;2023-10-09T13:54:56;3.50;;;3.20;;
7158;SDS011;63175;52.374;13.132;2023-10-09T13:57:25;3.97;;;3.70;;
7158;SDS011;63175;52.374;13.132;2023-10-09T13:59:56;3.90;;;3.60;;
7158;SDS011;63175;52.374;13.132;2023-10-09T14:02:25;4.03;;;3.73;;
7158;SDS011;63175;52.374;13.132;2023-10-09T14:04:53;3.50;;;3.30;;
7158;SDS011;63175;52.374;13.132;2023-10-09T14:07:22;4.73;;;4.43;;
7158;SDS011;63175;52.374;13.132;2023-10-09T14:09:50;3.90;;;3.60;;
7158;SDS011;63175;52.374;13.132;2023-10-09T14:12:33;3.70;;;3.40;;
7158;SDS011;63175;52.374;13.132;2023-10-09T14:15:05;3.93;;;3.63;;
7158;SDS011;63175;52.374;13.132;2023-10-09T14:17:36;3.77;;;3.57;;
7158;SDS011;63175;52.374;13.132;2023-10-09T14:20:07;3.87;;;3.60;;
7158;SDS011;63175;52.374;13.132;2023-10-09T14:22:49;4.00;;;3.60;;
7158;SDS011;63175;52.374;13.132;2023-10-09T14:25:17;4.53;;;4.20;;
7158;SDS011;63175;52.374;13.132;2023-10-09T14:27:47;4.63;;;4.23;;
7158;SDS011;63175;52.374;13.132;2023-10-09T14:30:14;3.77;;;3.30;;
7158;SDS011;63175;52.374;13.132;2023-10-09T14:32:48;4.60;;;4.20;;
7158;SDS011;63175;52.374;13.132;2023-10-09T14:35:20;5.67;;;4.90;;
7158;SDS011;63175;52.374;13.132;2023-10-09T14:37:51;5.07;;;4.57;;
7158;SDS011;63175;52.374;13.132;2023-10-09T14:40:19;7.47;;;5.70;;
7158;SDS011;63175;52.374;13.132;2023-10-09T14:42:56;5.50;;;5.00;;
7158;SDS011;63175;52.374;13.132;2023-10-09T14:45:24;5.70;;;5.20;;
7158;SDS011;63175;52.374;13.132;2023-10-09T14:47:51;9.60;;;5.23;;
7158;SDS011;63175;52.374;13.132;2023-10-09T14:50:19;5.33;;;4.93;;
7158;SDS011;63175;52.374;13.132;2023-10-09T14:52:48;5.03;;;4.60;;
7158;SDS011;63175;52.374;13.132;2023-10-09T14:55:15;5.83;;;5.33;;
7158;SDS011;63175;52.374;13.132;2023-10-09T14:57:46;6.40;;;5.80;;
7158;SDS011;63175;52.374;13.132;2023-10-09T15:00:16;5.90;;;5.03;;
7158;SDS011;63175;52.374;13.132;2023-10-09T15:02:48;6.17;;;5.60;;
7158;SDS011;63175;52.374;13.132;2023-10-09T15:05:16;5.70;;;5.20;;
7158;SDS011;63175;52.374;13.132;2023-10-09T15:07:43;7.33;;;4.90;;
7158;SDS011;63175;52.374;13.132;2023-10-09T15:10:10;8.90;;;7.80;;
7158;SDS011;63175;52.374;13.132;2023-10-09T15:12:40;11.00;;;7.60;;
7158;SDS011;63175;52.374;13.132;2023-10-09T15:15:08;9.23;;;8.33;;
7158;SDS011;63175;52.374;13.132;2023-10-09T15:17:40;10.20;;;8.43;;
7158;SDS011;63175;52.374;13.132;2023-10-09T15:20:10;8.97;;;8.07;;
7158;SDS011;63175;52.374;13.132;2023-10-09T15:22:39;7.53;;;6.93;;
7158;SDS011;63175;52.374;13.132;2023-10-09T15:25:06;7.90;;;6.60;;
7158;SDS011;63175;52.374;13.132;2023-10-09T15:27:34;8.40;;;7.60;;
7158;SDS011;63175;52.374;13.132;2023-10-09T15:30:04;8.80;;;8.00;;
7158;SDS011;63175;52.374;13.132;2023-10-09T15:32:33;11.07;;;7.60;;
7158;SDS011;63175;52.374;13.132;2023-10-09T15:35:02;10.90;;;9.83;;
7158;SDS011;63175;52.374;13.132;2023-10-09T15:37:35;10.57;;;8.80;;
7158;SDS011;63175;52.374;13.132;2023-10-09T15:40:02;10.67;;;9.30;;
7158;SDS011;63175;52.374;13.132;2023-10-09T15:42:39;10.37;;;8.47;;
7158;SDS011;63175;52.374;13.132;2023-10-09T15:45:06;11.70;;;10.50;;
7158;SDS011;63175;52.374;13.132;2023-10-09T15:47:34;9.43;;;7.93;;
7158;SDS011;63175;52.374;13.132;2023-10-09T15:50:03;10.50;;;9.27;;
7158;SDS011;63175;52.374;13.132;2023-10-09T15:52:33;9.53;;;8.53;;
7158;SDS011;63175;52.374;13.132;2023-10-09T15:55:00;12.10;;;9.30;;
7158;SDS011;63175;52.374;13.132;2023-10-09T15:57:27;12.00;;;10.60;;
7158;SDS011;63175;52.374;13.132;2023-10-09T15:59:55;9.80;;;8.80;;
7158;SDS011;63175;52.374;13.132;2023-10-09T16:02:22;14.23;;;9.80;;
7158;SDS011;63175;52.374;13.132;2023-10-09T16:04:49;11.13;;;10.03;;
7158;SDS011;63175;52.374;13.132;2023-10-09T16:07:19;11.50;;;9.93;;
7158;SDS011;63175;52.374;13.132;2023-10-09T16:09:46;10.93;;;9.83;;
7158;SDS011;63175;52.374;13.132;2023-10-09T16:12:14;10.00;;;9.00;;
7158;SDS011;63175;52.374;13.132;2023-10-09T16:14:42;9.73;;;8.10;;
7158;SDS011;63175;52.374;13.132;2023-10-09T16:17:08;8.23;;;7.43;;
7158;SDS011;63175;52.374;13.132;2023-10-09T16:19:37;9.87;;;8.93;;
7158;SDS011;63175;52.374;13.132;2023-10-09T16:22:06;9.50;;;8.57;;
7158;SDS011;63175;52.374;13.132;2023-10-09T16:24:37;10.40;;;9.40;;
7158;SDS011;63175;52.374;13.132;2023-10-09T16:27:04;13.10;;;10.30;;
7158;SDS011;63175;52.374;13.132;2023-10-09T16:29:32;10.63;;;9.60;;
7158;SDS011;63175;52.374;13.132;2023-10-09T16:31:59;10.27;;;9.20;;
7158;SDS011;63175;52.374;13.132;2023-10-09T16:34:26;9.77;;;8.73;;
7158;SDS011;63175;52.374;13.132;2023-10-09T16:36:54;11.10;;;9.20;;
7158;SDS011;63175;52.374;13.132;2023-10-09T16:39:21;10.33;;;9.33;;
7158;SDS011;63175;52.374;13.132;2023-10-09T16:41:49;11.37;;;10.17;;
7158;SDS011;63175;52.374;13.132;2023-10-09T16:44:18;10.53;;;9.43;;
7158;SDS011;63175;52.374;13.132;2023-10-09T16:46:45;10.10;;;9.10;;
7158;SDS011;63175;52.374;13.132;2023-10-09T16:49:12;9.50;;;8.50;;
7158;SDS011;63175;52.374;13.132;2023-10-09T16:51:39;9.73;;;8.73;;
7158;SDS011;63175;52.374;13.132;2023-10-09T16:54:07;9.33;;;8.43;;
7158;SDS011;63175;52.374;13.132;2023-10-09T16:56:40;8.50;;;7.77;;
7158;SDS011;63175;52.374;13.132;2023-10-09T16:59:10;11.03;;;9.93;;
7158;SDS011;63175;52.374;13.132;2023-10-09T17:01:39;10.77;;;9.07;;